createdAt,value
2019-04-22T00:02:30.351Z,13.80
2019-04-22T00:05:11.482Z,13.80
2019-04-22T00:08:00.099Z,13.80
2019-04-22T00:10:35.807Z,13.80
2019-04-22T00:13:00.051Z,13.70
2019-04-22T00:15:20.177Z,13.70
2019-04-22T00:18:15.794Z,13.70
2019-04-22T00:20:29.955Z,13.70
2019-04-22T00:23:00.126Z,13.60
2019-04-22T00:25:39.235Z,13.60
2019-04-22T00:28:02.413Z,13.60
2019-04-22T00:30:29.857Z,13.60
2019-04-22T00:33:17.998Z,13.60
2019-04-22T00:35:49.361Z,13.60
2019-04-22T00:41:00.831Z,13.50
2019-04-22T00:43:21.216Z,13.40
2019-04-22T00:45:54.026Z,13.40
2019-04-22T00:51:04.239Z,13.40
2019-04-22T00:56:07.404Z,13.30
2019-04-22T00:58:39.717Z,13.30
2019-04-22T01:01:08.056Z,13.30
2019-04-22T01:03:46.230Z,13.30
2019-04-22T01:06:07.749Z,13.30
2019-04-22T01:08:40.282Z,13.30
2019-04-22T01:11:14.766Z,13.20
2019-04-22T01:13:41.011Z,13.20
2019-04-22T01:16:15.317Z,13.30
2019-04-22T01:18:37.328Z,13.30
2019-04-22T01:21:21.510Z,13.20
2019-04-22T01:23:34.491Z,13.20
2019-04-22T01:26:06.427Z,13.20
2019-04-22T01:28:27.939Z,13.20
2019-04-22T01:30:53.324Z,13.10
2019-04-22T01:33:28.074Z,13.10
2019-04-22T01:36:09.309Z,13.10
2019-04-22T01:38:36.627Z,13.10
2019-04-22T01:41:16.490Z,13.10
2019-04-22T01:43:53.737Z,13.10
2019-04-22T01:46:16.614Z,13.10
2019-04-22T01:48:47.210Z,13.10
2019-04-22T01:51:12.259Z,13.10
2019-04-22T01:53:51.748Z,13.10
2019-04-22T01:56:20.910Z,13.00
2019-04-22T01:58:38.098Z,13.00
2019-04-22T02:01:22.281Z,13.00
2019-04-22T02:06:23.444Z,12.90
2019-04-22T02:08:52.813Z,12.90
2019-04-22T02:11:26.547Z,13.00
2019-04-22T02:13:49.813Z,12.90
2019-04-22T02:16:21.130Z,12.90
2019-04-22T02:18:56.403Z,12.90
2019-04-22T02:21:22.906Z,12.90
2019-04-22T02:26:27.232Z,12.80
2019-04-22T02:29:06.554Z,12.80
2019-04-22T02:41:41.512Z,12.70
2019-04-22T02:44:08.216Z,12.70
2019-04-22T02:46:44.951Z,12.70
2019-04-22T02:51:28.265Z,12.70
2019-04-22T02:59:12.255Z,12.60
2019-04-22T03:01:36.035Z,12.60
2019-04-22T03:04:20.476Z,12.60
2019-04-22T03:06:36.668Z,12.60
2019-04-22T03:14:04.645Z,12.60
2019-04-22T03:16:41.217Z,12.50
2019-04-22T03:19:17.745Z,12.50
2019-04-22T03:21:54.358Z,12.50
2019-04-22T03:29:33.476Z,12.40
2019-04-22T03:32:39.699Z,12.50
2019-04-22T03:39:51.300Z,12.40
2019-04-22T03:44:38.413Z,12.30
2019-04-22T03:49:58.588Z,12.30
2019-04-22T03:54:40.342Z,12.30
2019-04-22T03:57:25.036Z,12.30
2019-04-22T03:59:43.983Z,12.20
2019-04-22T04:09:39.134Z,12.20
2019-04-22T04:12:25.879Z,12.10
2019-04-22T04:14:46.422Z,12.10
2019-04-22T04:17:08.961Z,12.10
2019-04-22T04:20:05.947Z,12.00
2019-04-22T04:22:27.150Z,12.10
2019-04-22T04:27:43.563Z,12.00
2019-04-22T04:29:54.482Z,12.00
2019-04-22T04:32:26.860Z,12.00
2019-04-22T04:37:38.913Z,12.00
2019-04-22T04:39:54.538Z,12.10
2019-04-22T04:47:25.871Z,12.00
2019-04-22T04:49:52.351Z,12.00
2019-04-22T04:52:33.025Z,12.10
2019-04-22T04:55:12.342Z,12.10
2019-04-22T04:57:23.988Z,12.10
2019-04-22T05:07:27.745Z,12.20
2019-04-22T05:09:53.221Z,12.30
2019-04-22T05:12:33.550Z,12.30
2019-04-22T05:14:54.965Z,12.20
2019-04-22T05:19:47.664Z,12.30
2019-04-22T05:22:21.418Z,12.30
2019-04-22T05:24:53.391Z,12.30
2019-04-22T05:32:22.781Z,12.40
2019-04-22T05:34:48.569Z,12.40
2019-04-22T05:37:22.835Z,12.50
2019-04-22T05:39:49.674Z,12.40
2019-04-22T05:42:21.754Z,12.40
2019-04-22T05:45:10.285Z,12.50
2019-04-22T05:47:19.615Z,12.60
2019-04-22T05:49:48.087Z,12.60
2019-04-22T05:52:20.380Z,12.60
2019-04-22T05:54:55.339Z,12.70
2019-04-22T05:57:24.786Z,12.80
2019-04-22T05:59:59.520Z,12.80
2019-04-22T06:02:32.475Z,12.90
2019-04-22T06:04:58.297Z,13.00
2019-04-22T06:07:26.420Z,13.10
2019-04-22T06:10:02.347Z,13.10
2019-04-22T06:12:20.868Z,13.20
2019-04-22T06:14:58.145Z,13.20
2019-04-22T06:17:35.679Z,13.30
2019-04-22T06:19:58.655Z,13.40
2019-04-22T06:22:37.540Z,13.50
2019-04-22T06:25:04.269Z,13.60
2019-04-22T06:29:57.113Z,13.80
2019-04-22T06:35:09.508Z,13.90
2019-04-22T06:37:36.668Z,14.00
2019-04-22T06:40:06.768Z,14.00
2019-04-22T06:42:36.257Z,14.10
2019-04-22T06:45:07.266Z,14.20
2019-04-22T06:47:51.189Z,14.30
2019-04-22T06:50:07.658Z,14.40
2019-04-22T06:52:28.146Z,14.50
2019-04-22T06:55:13.180Z,14.60
2019-04-22T06:57:41.434Z,14.70
2019-04-22T07:00:14.363Z,14.80
2019-04-22T07:02:47.168Z,14.90
2019-04-22T07:05:08.187Z,14.90
2019-04-22T07:07:41.754Z,15.00
2019-04-22T07:10:20.133Z,15.20
2019-04-22T07:12:34.634Z,15.30
2019-04-22T07:15:13.723Z,15.30
2019-04-22T07:17:42.415Z,15.40
2019-04-22T07:20:10.473Z,15.50
2019-04-22T07:22:41.916Z,15.70
2019-04-22T07:25:10.262Z,15.80
2019-04-22T07:27:41.828Z,15.80
2019-04-22T07:30:15.173Z,15.80
2019-04-22T07:35:19.523Z,16.00
2019-04-22T07:38:00.714Z,16.10
2019-04-22T07:40:25.171Z,16.20
2019-04-22T07:42:45.432Z,16.30
2019-04-22T07:45:16.566Z,16.30
2019-04-22T07:50:32.204Z,16.60
2019-04-22T07:52:44.950Z,16.70
2019-04-22T07:55:13.423Z,16.70
2019-04-22T07:57:51.989Z,16.80
2019-04-22T08:02:51.715Z,17.00
2019-04-22T08:05:21.675Z,17.20
2019-04-22T08:07:52.047Z,17.30
2019-04-22T08:12:55.451Z,17.50
2019-04-22T08:15:21.272Z,17.50
2019-04-22T08:20:25.156Z,17.70
2019-04-22T08:23:00.916Z,17.80
2019-04-22T08:25:26.508Z,17.90
2019-04-22T08:28:01.647Z,17.90
2019-04-22T08:30:28.333Z,17.90
2019-04-22T08:32:53.229Z,18.00
2019-04-22T08:40:34.712Z,18.20
2019-04-22T08:43:09.062Z,18.30
2019-04-22T08:45:36.603Z,18.50
2019-04-22T08:47:54.757Z,18.60
2019-04-22T08:50:28.396Z,18.70
2019-04-22T08:53:06.205Z,18.90
2019-04-22T08:55:32.918Z,18.90
2019-04-22T08:58:16.762Z,19.00
2019-04-22T09:00:37.502Z,19.10
2019-04-22T09:03:04.415Z,19.10
2019-04-22T09:06:02.426Z,19.20
2019-04-22T09:08:09.422Z,19.40
2019-04-22T09:10:40.011Z,19.50
2019-04-22T09:13:05.801Z,19.60
2019-04-22T09:15:34.314Z,19.60
2019-04-22T09:18:12.767Z,19.60
2019-04-22T09:20:40.436Z,19.90
2019-04-22T09:23:07.664Z,20.00
2019-04-22T09:28:07.339Z,20.10
2019-04-22T09:30:40.406Z,20.20
2019-04-22T09:33:17.080Z,20.30
2019-04-22T09:35:45.058Z,20.30
2019-04-22T09:40:43.521Z,20.40
2019-04-22T09:43:13.356Z,20.60
2019-04-22T09:45:43.603Z,20.60
2019-04-22T09:48:16.621Z,20.70
2019-04-22T09:50:47.981Z,20.80
2019-04-22T09:53:16.111Z,20.90
2019-04-22T09:55:47.139Z,21.10
2019-04-22T09:58:16.177Z,21.10
2019-04-22T10:01:30.745Z,21.00
2019-04-22T10:03:49.737Z,21.00
2019-04-22T10:06:22.562Z,21.00
2019-04-22T10:08:54.220Z,20.90
2019-04-22T10:11:25.122Z,20.90
2019-04-22T10:13:52.323Z,21.20
2019-04-22T10:16:17.331Z,21.20
2019-04-22T10:18:46.117Z,21.30
2019-04-22T10:21:27.219Z,21.30
2019-04-22T10:23:44.305Z,21.40
2019-04-22T10:26:26.854Z,21.30
2019-04-22T10:28:53.261Z,21.30
2019-04-22T10:31:29.441Z,21.40
2019-04-22T10:33:42.181Z,21.30
2019-04-22T10:35:55.423Z,21.30
2019-04-22T10:38:24.195Z,21.40
2019-04-22T10:40:54.451Z,21.50
2019-04-22T10:43:23.349Z,21.60
2019-04-22T10:45:52.331Z,21.70
2019-04-22T10:48:22.036Z,21.90
2019-04-22T10:50:50.911Z,22.00
2019-04-22T10:53:19.894Z,22.00
2019-04-22T10:55:49.796Z,22.10
2019-04-22T10:58:20.719Z,22.30
2019-04-22T11:00:50.393Z,22.40
2019-04-22T11:03:20.407Z,22.50
2019-04-22T11:05:50.546Z,22.60
2019-04-22T11:08:28.566Z,22.60
2019-04-22T11:11:04.727Z,22.50
2019-04-22T11:13:22.098Z,22.50
2019-04-22T11:15:51.040Z,22.60
2019-04-22T11:18:19.977Z,22.70
2019-04-22T11:20:49.530Z,22.60
2019-04-22T11:23:18.726Z,22.70
2019-04-22T11:25:47.993Z,22.90
2019-04-22T11:28:18.005Z,23.00
2019-04-22T11:30:48.131Z,23.10
2019-04-22T11:33:18.299Z,23.20
2019-04-22T11:35:47.947Z,23.20
2019-04-22T11:38:17.279Z,23.10
2019-04-22T11:40:51.644Z,22.90
2019-04-22T11:43:16.696Z,22.90
2019-04-22T11:45:45.395Z,22.90
2019-04-22T11:48:15.488Z,23.00
2019-04-22T11:50:46.000Z,23.20
2019-04-22T11:53:16.570Z,23.20
2019-04-22T11:55:46.774Z,23.10
2019-04-22T11:58:16.937Z,23.10
2019-04-22T12:00:46.144Z,23.20
2019-04-22T12:03:14.953Z,23.20
2019-04-22T12:05:44.063Z,23.40
2019-04-22T12:08:13.266Z,23.20
2019-04-22T12:10:49.200Z,23.10
2019-04-22T12:13:12.992Z,23.30
2019-04-22T12:15:42.782Z,23.30
2019-04-22T12:18:13.019Z,23.60
2019-04-22T12:20:43.370Z,23.60
2019-04-22T12:23:12.728Z,23.60
2019-04-22T12:25:48.683Z,23.60
2019-04-22T12:28:13.000Z,23.70
2019-04-22T12:30:41.948Z,23.70
2019-04-22T12:33:12.976Z,23.70
2019-04-22T12:35:42.214Z,23.70
2019-04-22T12:38:14.354Z,24.00
2019-04-22T12:40:49.358Z,24.10
2019-04-22T12:43:14.313Z,23.90
2019-04-22T12:45:42.800Z,23.90
2019-04-22T12:48:12.818Z,23.90
2019-04-22T12:50:45.652Z,24.10
2019-04-22T12:53:16.706Z,23.90
2019-04-22T12:55:43.924Z,23.80
2019-04-22T12:58:13.878Z,24.00
2019-04-22T13:00:45.228Z,24.30
2019-04-22T13:03:14.173Z,24.30
2019-04-22T13:05:43.137Z,24.20
2019-04-22T13:08:13.754Z,24.40
2019-04-22T13:10:53.294Z,24.40
2019-04-22T13:13:13.311Z,24.30
2019-04-22T13:15:42.178Z,24.30
2019-04-22T13:18:19.183Z,24.50
2019-04-22T13:20:42.174Z,24.50
2019-04-22T13:23:11.650Z,24.30
2019-04-22T13:25:40.951Z,24.00
2019-04-22T13:28:11.238Z,24.10
2019-04-22T13:30:40.888Z,24.30
2019-04-22T13:33:10.763Z,24.40
2019-04-22T13:35:39.737Z,24.30
2019-04-22T13:38:09.121Z,24.40
2019-04-22T13:40:39.105Z,24.50
2019-04-22T13:43:09.079Z,24.50
2019-04-22T13:45:38.569Z,24.60
2019-04-22T13:48:24.052Z,24.50
2019-04-22T13:51:03.449Z,24.60
2019-04-22T13:53:46.177Z,24.60
2019-04-22T13:56:01.732Z,24.60
2019-04-22T13:58:23.350Z,24.50
2019-04-22T14:00:40.709Z,24.60
2019-04-22T14:03:39.081Z,24.50
2019-04-22T14:06:09.079Z,24.50
2019-04-22T14:08:37.958Z,24.40
2019-04-22T14:11:18.284Z,24.70
2019-04-22T14:13:39.626Z,24.60
2019-04-22T14:16:09.026Z,24.50
2019-04-22T14:18:39.045Z,24.50
2019-04-22T14:21:09.125Z,24.70
2019-04-22T14:23:38.523Z,24.80
2019-04-22T14:26:07.347Z,25.10
2019-04-22T14:28:37.466Z,25.30
2019-04-22T14:31:06.842Z,25.10
2019-04-22T14:33:36.264Z,24.90
2019-04-22T14:36:05.387Z,24.90
2019-04-22T14:38:34.711Z,24.90
2019-04-22T14:41:05.757Z,24.80
2019-04-22T14:44:24.478Z,24.90
2019-04-22T14:46:35.000Z,24.90
2019-04-22T14:49:00.004Z,25.00
2019-04-22T14:51:25.521Z,24.90
2019-04-22T14:53:56.689Z,25.00
2019-04-22T14:56:08.502Z,24.90
2019-04-22T14:58:37.564Z,24.80
2019-04-22T15:01:06.899Z,24.80
2019-04-22T15:03:39.939Z,24.90
2019-04-22T15:06:06.561Z,24.90
2019-04-22T15:08:35.417Z,24.80
2019-04-22T15:11:06.223Z,24.70
2019-04-22T15:13:35.635Z,24.80
2019-04-22T15:16:27.751Z,24.90
2019-04-22T15:19:11.619Z,25.00
2019-04-22T15:21:40.995Z,24.90
2019-04-22T15:24:27.343Z,24.90
2019-04-22T15:26:58.597Z,24.90
2019-04-22T15:29:29.391Z,25.00
2019-04-22T15:31:59.730Z,25.00
2019-04-22T15:34:30.386Z,24.80
2019-04-22T15:37:00.092Z,24.90
2019-04-22T15:39:29.252Z,24.80
2019-04-22T15:42:11.387Z,24.60
2019-04-22T15:44:30.248Z,24.70
2019-04-22T15:47:00.717Z,24.80
2019-04-22T15:49:29.842Z,25.00
2019-04-22T15:52:00.752Z,24.90
2019-04-22T15:54:29.850Z,24.90
2019-04-22T15:56:59.047Z,25.00
2019-04-22T15:59:46.571Z,25.00
2019-04-22T16:02:00.278Z,24.90
2019-04-22T16:04:30.720Z,24.90
2019-04-22T16:07:01.069Z,24.80
2019-04-22T16:09:31.266Z,24.80
2019-04-22T16:12:12.559Z,24.70
2019-04-22T16:14:37.193Z,24.50
2019-04-22T16:17:01.393Z,24.50
2019-04-22T16:19:30.948Z,24.50
2019-04-22T16:22:05.543Z,24.50
2019-04-22T16:24:50.223Z,24.40
2019-04-22T16:27:22.849Z,24.30
2019-04-22T16:29:51.767Z,24.30
2019-04-22T16:32:21.226Z,24.20
2019-04-22T16:34:54.537Z,24.30
2019-04-22T16:37:24.953Z,24.20
2019-04-22T16:39:54.749Z,24.20
2019-04-22T16:42:31.182Z,24.10
2019-04-22T16:44:55.463Z,23.80
2019-04-22T16:47:25.419Z,23.50
2019-04-22T16:49:55.321Z,23.20
2019-04-22T16:52:25.841Z,23.00
2019-04-22T16:54:55.018Z,22.80
2019-04-22T16:57:24.125Z,22.80
2019-04-22T16:59:53.168Z,22.60
2019-04-22T17:02:43.420Z,22.30
2019-04-22T17:05:29.743Z,22.10
2019-04-22T17:08:00.425Z,22.00
2019-04-22T17:10:29.698Z,21.90
2019-04-22T17:13:05.961Z,21.70
2019-04-22T17:15:33.402Z,21.60
2019-04-22T17:18:03.234Z,21.60
2019-04-22T17:20:38.220Z,21.70
2019-04-22T17:23:07.452Z,21.80
2019-04-22T17:25:36.404Z,21.90
2019-04-22T17:28:05.683Z,21.90
2019-04-22T17:30:35.896Z,22.00
2019-04-22T17:33:05.246Z,21.90
2019-04-22T17:35:34.296Z,21.90
2019-04-22T17:38:15.352Z,21.90
2019-04-22T17:40:52.287Z,21.70
2019-04-22T17:43:36.199Z,21.60
2019-04-22T17:46:13.703Z,21.50
2019-04-22T17:49:04.354Z,21.30
2019-04-22T17:51:55.170Z,21.30
2019-04-22T17:54:12.071Z,21.20
2019-04-22T17:56:37.303Z,21.10
2019-04-22T17:59:08.242Z,21.10
2019-04-22T18:01:40.296Z,20.90
2019-04-22T18:03:53.029Z,20.80
2019-04-22T18:06:46.955Z,20.60
2019-04-22T18:09:04.959Z,20.40
2019-04-22T18:11:56.077Z,20.30
2019-04-22T18:14:29.924Z,20.10
2019-04-22T18:16:41.294Z,20.00
2019-04-22T18:19:16.651Z,19.90
2019-04-22T18:21:41.222Z,19.70
2019-04-22T18:24:06.869Z,19.50
2019-04-22T18:26:49.725Z,19.40
2019-04-22T18:29:19.373Z,19.40
2019-04-22T18:31:34.282Z,19.30
2019-04-22T18:34:10.134Z,19.20
2019-04-22T18:36:40.426Z,19.10
2019-04-22T18:39:22.497Z,19.00
2019-04-22T18:41:48.186Z,18.90
2019-04-22T18:44:25.115Z,18.70
2019-04-22T18:46:52.408Z,18.70
2019-04-22T18:49:26.886Z,18.60
2019-04-22T18:52:14.735Z,18.50
2019-04-22T18:54:55.362Z,18.40
2019-04-22T18:57:22.182Z,18.30
2019-04-22T18:59:37.988Z,18.30
2019-04-22T19:02:07.817Z,18.20
2019-04-22T19:04:47.297Z,18.10
2019-04-22T19:07:33.184Z,18.00
2019-04-22T19:10:04.890Z,18.00
2019-04-22T19:12:35.503Z,17.90
2019-04-22T19:15:22.673Z,17.80
2019-04-22T19:17:44.315Z,17.80
2019-04-22T19:22:36.044Z,17.70
2019-04-22T19:24:58.022Z,17.60
2019-04-22T19:27:31.225Z,17.50
2019-04-22T19:30:03.994Z,17.50
2019-04-22T19:32:35.141Z,17.40
2019-04-22T19:34:57.377Z,17.30
2019-04-22T19:37:28.471Z,17.30
2019-04-22T19:40:10.508Z,17.20
2019-04-22T19:42:49.523Z,17.20
2019-04-22T19:45:08.607Z,17.10
2019-04-22T19:47:56.545Z,17.00
2019-04-22T19:50:15.053Z,17.00
2019-04-22T19:52:40.345Z,16.90
2019-04-22T19:55:12.586Z,16.90
2019-04-22T19:57:41.328Z,16.80
2019-04-22T20:00:18.375Z,16.80
2019-04-22T20:03:03.683Z,16.70
2019-04-22T20:05:47.979Z,16.70
2019-04-22T20:08:21.334Z,16.60
2019-04-22T20:10:51.252Z,16.50
2019-04-22T20:13:24.248Z,16.50
2019-04-22T20:15:43.334Z,16.40
2019-04-22T20:20:58.489Z,16.40
2019-04-22T20:23:18.204Z,16.30
2019-04-22T20:25:48.373Z,16.20
2019-04-22T20:28:25.660Z,16.20
2019-04-22T20:30:59.600Z,16.10
2019-04-22T20:33:29.126Z,16.00
2019-04-22T20:36:01.493Z,16.00
2019-04-22T20:38:26.228Z,15.90
2019-04-22T20:40:55.183Z,15.90
2019-04-22T20:43:38.925Z,15.90
2019-04-22T20:46:00.605Z,15.80
2019-04-22T20:48:28.586Z,15.80
2019-04-22T20:50:59.223Z,15.70
2019-04-22T20:53:36.426Z,15.70
2019-04-22T20:56:00.556Z,15.60
2019-04-22T20:58:33.068Z,15.60
2019-04-22T21:00:56.871Z,15.50
2019-04-22T21:03:23.773Z,15.50
2019-04-22T21:05:55.883Z,15.40
2019-04-22T21:08:36.592Z,15.40
2019-04-22T21:10:57.918Z,15.30
2019-04-22T21:13:28.163Z,15.30
2019-04-22T21:16:10.546Z,15.20
2019-04-22T21:18:30.699Z,15.20
2019-04-22T21:21:07.201Z,15.20
2019-04-22T21:23:32.879Z,15.20
2019-04-22T21:26:11.205Z,15.10
2019-04-22T21:28:38.399Z,15.00
2019-04-22T21:31:14.835Z,15.00
2019-04-22T21:33:40.811Z,15.10
2019-04-22T21:36:30.186Z,15.10
2019-04-22T21:38:42.157Z,15.00
2019-04-22T21:41:10.041Z,15.00
2019-04-22T21:43:42.176Z,15.00
2019-04-22T21:46:29.206Z,14.90
2019-04-22T21:48:46.474Z,14.90
2019-04-22T21:51:21.290Z,14.90
2019-04-22T21:53:52.193Z,14.80
2019-04-22T21:59:00.228Z,14.70
2019-04-22T22:01:44.725Z,14.70
2019-04-22T22:04:07.953Z,14.60
2019-04-22T22:06:31.145Z,14.60
2019-04-22T22:09:08.703Z,14.50
2019-04-22T22:11:38.672Z,14.40
2019-04-22T22:14:07.820Z,14.40
2019-04-22T22:16:34.927Z,14.40
2019-04-22T22:19:11.698Z,14.40
2019-04-22T22:21:47.098Z,14.30
2019-04-22T22:24:18.144Z,14.20
2019-04-22T22:26:45.066Z,14.10
2019-04-22T22:29:18.427Z,14.10
2019-04-22T22:31:47.123Z,14.10
2019-04-22T22:34:19.467Z,14.10
2019-04-22T22:36:40.395Z,14.10
2019-04-22T22:39:08.685Z,14.00
2019-04-22T22:41:25.978Z,14.00
2019-04-22T22:44:03.210Z,14.00
2019-04-22T22:46:34.182Z,14.00
2019-04-22T22:49:21.860Z,14.00
2019-04-22T22:54:21.444Z,13.90
2019-04-22T22:56:57.598Z,13.80
2019-04-22T22:59:24.056Z,13.80
2019-04-22T23:01:52.693Z,13.70
2019-04-22T23:04:26.381Z,13.70
2019-04-22T23:06:56.205Z,13.60
2019-04-22T23:09:22.612Z,13.60
2019-04-22T23:12:13.257Z,13.50
2019-04-22T23:14:20.372Z,13.50
2019-04-22T23:16:44.958Z,13.50
2019-04-22T23:19:04.462Z,13.40
2019-04-22T23:21:39.850Z,13.40
2019-04-22T23:24:28.265Z,13.30
2019-04-22T23:27:03.090Z,13.30
2019-04-22T23:29:43.047Z,13.30
2019-04-22T23:32:18.537Z,13.30
2019-04-22T23:34:55.857Z,13.20
2019-04-22T23:37:25.206Z,13.20
2019-04-22T23:40:13.097Z,13.20
2019-04-22T23:42:33.418Z,13.10
2019-04-22T23:45:07.259Z,13.00
2019-04-22T23:47:29.289Z,13.10
2019-04-22T23:50:08.894Z,13.00
2019-04-22T23:52:58.842Z,13.10
2019-04-22T23:55:29.804Z,13.00
2019-04-22T23:58:21.057Z,13.00
